Time;durP1;ratioP1;P1;durP2;ratioP2;P2;SDS_P1;SDS_P2;PMS_P1;PMS_P2;Temp;Humidity;BMP_temperature;BMP_pressure;BME280_temperature;BME280_humidity;BME280_pressure;Samples;Min_cycle;Max_cycle;Signal;HPM_P1;HPM_P2
2022/02/08 00:01:23;;;;;;;14.93;7.90;;;-1.30;99.90;;;;;;5007090;28;20445;-59
2022/02/08 00:03:48;;;;;;;12.70;7.00;;;-1.30;99.90;;;;;;5007428;28;20435;-60
2022/02/08 00:08:49;;;;;;;10.03;5.70;;;-1.30;99.90;;;;;;5006976;28;20502;-59
2022/02/08 00:11:15;;;;;;;9.10;5.10;;;-1.30;99.90;;;;;;5006849;28;20464;-60
2022/02/08 00:13:41;;;;;;;8.27;4.90;;;-1.30;99.90;;;;;;5005891;28;20698;-58
2022/02/08 00:16:06;;;;;;;10.23;5.47;;;-1.20;99.90;;;;;;5005770;28;20618;-60
2022/02/08 00:18:32;;;;;;;8.27;4.87;;;-1.20;99.90;;;;;;5009473;28;20273;-58
2022/02/08 00:20:58;;;;;;;10.03;4.60;;;-1.20;99.90;;;;;;5010371;28;20195;-60
2022/02/08 00:23:23;;;;;;;9.50;4.47;;;-1.20;99.90;;;;;;5011341;28;20186;-59
2022/02/08 00:25:49;;;;;;;8.30;4.37;;;-1.20;99.90;;;;;;5010319;28;21494;-60
2022/02/08 00:28:15;;;;;;;15.53;5.33;;;-1.20;99.90;;;;;;5006412;28;20194;-60
2022/02/08 00:30:40;;;;;;;12.57;5.13;;;-1.20;99.90;;;;;;5013565;28;20186;-59
2022/02/08 00:33:06;;;;;;;7.33;4.50;;;-1.30;99.90;;;;;;5009809;28;20713;-60
2022/02/08 00:35:32;;;;;;;7.90;4.80;;;-1.30;99.90;;;;;;5010182;28;20178;-60
2022/02/08 00:37:57;;;;;;;14.13;4.70;;;-1.30;99.90;;;;;;5004978;28;20240;-60
2022/02/08 00:40:25;;;;;;;15.53;4.77;;;-1.30;99.90;;;;;;5010133;28;20181;-60
2022/02/08 00:42:51;;;;;;;7.80;4.10;;;-1.30;99.90;;;;;;5006537;28;20670;-60
2022/02/08 00:45:49;;;;;;;8.70;4.10;;;-1.30;99.90;;;;;;5010075;28;20433;-60
2022/02/08 00:48:24;;;;;;;10.43;4.43;;;-1.30;99.90;;;;;;5010796;28;20267;-59
2022/02/08 00:50:51;;;;;;;7.83;4.30;;;-1.20;99.90;;;;;;5008849;28;21052;-60
2022/02/08 00:53:17;;;;;;;16.03;4.80;;;-1.20;99.90;;;;;;5007049;28;20469;-59
2022/02/08 00:55:43;;;;;;;10.93;4.07;;;-1.20;99.90;;;;;;5010297;28;20429;-58
2022/02/08 00:58:09;;;;;;;9.13;4.43;;;-1.20;99.90;;;;;;5010683;28;20435;-60
2022/02/08 01:00:35;;;;;;;9.40;3.90;;;-1.20;99.90;;;;;;5007961;28;20445;-59
2022/02/08 01:03:03;;;;;;;7.17;4.27;;;-1.10;99.90;;;;;;5009478;28;20286;-60
2022/02/08 01:05:29;;;;;;;9.17;4.50;;;-1.10;99.90;;;;;;5007723;28;20421;-60
2022/02/08 01:07:54;;;;;;;11.80;4.80;;;-1.10;99.90;;;;;;5007861;28;20446;-60
2022/02/08 01:10:23;;;;;;;11.80;4.87;;;-1.00;99.90;;;;;;5005893;28;20924;-61
2022/02/08 01:12:49;;;;;;;15.00;5.80;;;-1.10;99.90;;;;;;5006489;28;21172;-59
2022/02/08 01:15:16;;;;;;;8.40;6.00;;;-1.10;99.90;;;;;;5007933;28;20464;-59
2022/02/08 01:17:43;;;;;;;13.07;5.80;;;-1.20;99.90;;;;;;5005439;28;20464;-59
2022/02/08 01:20:17;;;;;;;10.83;5.77;;;-1.20;99.90;;;;;;5005629;28;20445;-59
2022/02/08 01:22:43;;;;;;;11.50;6.07;;;-1.20;99.90;;;;;;5006991;28;20484;-60
2022/02/08 01:25:16;;;;;;;16.37;6.50;;;-1.20;99.90;;;;;;5010228;28;20527;-59
2022/02/08 01:27:49;;;;;;;12.53;6.10;;;-1.20;99.90;;;;;;5018901;28;20198;-60
2022/02/08 01:30:27;;;;;;;10.90;5.93;;;-1.20;99.90;;;;;;5008545;28;20447;-60
2022/02/08 01:33:20;;;;;;;8.57;5.17;;;-1.20;99.90;;;;;;5007561;28;20468;-58
2022/02/08 01:38:16;;;;;;;10.80;6.70;;;-1.10;99.90;;;;;;5009474;28;20957;-59
2022/02/08 01:45:49;;;;;;;11.53;6.30;;;-1.10;99.90;;;;;;5011781;28;20442;-59
2022/02/08 01:49:13;;;;;;;9.57;6.17;;;-1.10;99.90;;;;;;5004964;28;20194;-58
2022/02/08 01:51:01;;;;;;;11.43;6.23;;;-1.00;99.90;;;;;;5005735;28;20431;-59
2022/02/08 01:53:27;;;;;;;11.20;5.57;;;-1.00;99.90;;;;;;5008999;28;20460;-59
2022/02/08 01:55:53;;;;;;;18.50;7.20;;;-1.00;99.90;;;;;;5009615;28;20182;-59
2022/02/08 01:58:19;;;;;;;11.40;5.30;;;-1.00;99.90;;;;;;5005868;28;20578;-59
2022/02/08 02:00:45;;;;;;;9.13;4.23;;;-1.00;99.90;;;;;;5008287;28;20193;-60
2022/02/08 02:03:11;;;;;;;14.60;4.57;;;-0.90;99.90;;;;;;5008855;28;20452;-60
2022/02/08 02:05:37;;;;;;;6.30;3.47;;;-0.90;99.90;;;;;;5018608;28;20441;-60
2022/02/08 02:08:03;;;;;;;7.37;3.17;;;-0.90;99.90;;;;;;5006651;28;20185;-60
2022/02/08 02:10:29;;;;;;;8.03;3.73;;;-0.90;99.90;;;;;;5008690;28;20580;-60
2022/02/08 02:13:02;;;;;;;6.00;3.80;;;-0.90;99.90;;;;;;5004374;28;20530;-60
2022/02/08 02:15:28;;;;;;;10.60;4.10;;;-1.00;99.90;;;;;;5005654;28;20174;-59
2022/02/08 02:17:54;;;;;;;12.47;4.40;;;-0.90;99.90;;;;;;5005351;28;20441;-60
2022/02/08 02:20:20;;;;;;;9.30;4.80;;;-0.90;99.90;;;;;;5007425;28;20518;-60
2022/02/08 02:22:46;;;;;;;10.03;5.43;;;-0.90;99.90;;;;;;5008498;28;20598;-60
2022/02/08 02:25:29;;;;;;;11.87;4.67;;;-0.90;99.90;;;;;;5009643;28;20502;-60
2022/02/08 02:27:58;;;;;;;8.13;3.63;;;-0.90;99.90;;;;;;5008037;28;20956;-59
2022/02/08 02:30:25;;;;;;;11.70;4.90;;;-0.90;99.90;;;;;;5007301;28;21357;-60
2022/02/08 02:32:52;;;;;;;11.33;5.00;;;-0.90;99.90;;;;;;5006776;28;20469;-60
2022/02/08 02:35:18;;;;;;;18.00;5.33;;;-0.90;99.90;;;;;;5006806;28;20435;-60
2022/02/08 02:37:44;;;;;;;8.90;5.33;;;-0.90;99.90;;;;;;5007193;28;20484;-60
2022/02/08 02:40:11;;;;;;;9.17;5.90;;;-0.90;99.90;;;;;;5007024;28;20467;-59
2022/02/08 02:42:37;;;;;;;8.40;4.80;;;-0.90;99.90;;;;;;5007281;28;20260;-60
2022/02/08 02:45:05;;;;;;;12.47;6.37;;;-1.00;99.90;;;;;;5004703;28;20433;-60
2022/02/08 02:47:30;;;;;;;12.60;6.50;;;-1.00;99.90;;;;;;5006567;28;20595;-60
2022/02/08 02:49:56;;;;;;;12.70;5.50;;;-1.00;99.90;;;;;;5004570;28;20444;-60
2022/02/08 02:52:21;;;;;;;10.07;5.57;;;-1.00;99.90;;;;;;5006976;28;20601;-59
2022/02/08 02:54:48;;;;;;;11.03;5.43;;;-1.00;99.90;;;;;;5008415;28;20284;-60
2022/02/08 02:57:15;;;;;;;12.00;6.80;;;-1.00;99.90;;;;;;5007020;28;20579;-59
2022/02/08 02:59:43;;;;;;;9.27;5.50;;;-1.00;99.90;;;;;;5006063;28;20423;-59
2022/02/08 03:04:58;;;;;;;12.57;5.87;;;-1.00;99.90;;;;;;5008014;28;20522;-60
2022/02/08 03:20:47;;;;;;;12.23;5.33;;;-1.00;99.90;;;;;;5009992;28;20411;-59
2022/02/08 03:23:16;;;;;;;19.97;5.53;;;-1.00;99.90;;;;;;5004803;28;20182;-60
2022/02/08 03:25:42;;;;;;;9.47;5.27;;;-1.00;99.90;;;;;;5006466;28;22350;-60
2022/02/08 03:28:08;;;;;;;8.20;5.37;;;-1.10;99.90;;;;;;5006468;28;20436;-59
2022/02/08 03:30:34;;;;;;;10.83;5.53;;;-1.10;99.90;;;;;;5007460;28;20182;-60
2022/02/08 03:33:00;;;;;;;7.30;5.07;;;-1.10;99.90;;;;;;5004969;28;20508;-59
2022/02/08 03:35:25;;;;;;;10.10;5.17;;;-1.10;99.90;;;;;;5006686;28;20429;-60
2022/02/08 03:38:01;;;;;;;6.07;3.23;;;-1.10;99.90;;;;;;5006588;28;20191;-59
2022/02/08 03:40:37;;;;;;;6.67;3.30;;;-1.10;99.90;;;;;;5005639;28;20182;-59
2022/02/08 03:45:51;;;;;;;9.13;4.80;;;-1.10;99.90;;;;;;5007893;28;21118;-59
2022/02/08 03:48:17;;;;;;;11.73;3.60;;;-1.10;99.90;;;;;;5005987;28;20439;-60
2022/02/08 03:50:46;;;;;;;10.53;3.27;;;-1.10;99.90;;;;;;5005419;28;20433;-60
2022/02/08 03:53:12;;;;;;;5.70;2.90;;;-1.00;99.90;;;;;;5009367;28;20897;-60
2022/02/08 03:55:38;;;;;;;7.70;2.40;;;-1.10;99.90;;;;;;5010909;28;20432;-60
2022/02/08 03:58:04;;;;;;;6.30;3.87;;;-1.00;99.90;;;;;;5011486;28;20433;-60
2022/02/08 04:00:36;;;;;;;12.03;4.60;;;-1.00;99.90;;;;;;5010481;28;20224;-60
2022/02/08 04:03:01;;;;;;;14.43;4.60;;;-1.00;99.90;;;;;;5008381;28;20198;-60
2022/02/08 04:05:32;;;;;;;14.23;4.43;;;-1.00;99.90;;;;;;5012273;28;20983;-60
2022/02/08 04:08:03;;;;;;;8.07;4.40;;;-1.00;99.90;;;;;;5012268;28;20646;-60
2022/02/08 04:10:30;;;;;;;12.27;5.00;;;-1.10;99.90;;;;;;5014106;28;20443;-61
2022/02/08 04:15:44;;;;;;;9.90;4.97;;;-1.10;99.90;;;;;;5010011;28;20829;-59
2022/02/08 04:32:11;;;;;;;9.30;5.07;;;-1.10;99.90;;;;;;5010600;28;21057;-59
2022/02/08 04:42:34;;;;;;;;;;;;;;;;;;;;;
2022/02/08 04:47:28;;;;;;;6.10;3.53;;;-0.80;99.90;;;;;;5010139;28;20194;-60
2022/02/08 04:49:55;;;;;;;5.70;3.93;;;-0.70;99.90;;;;;;5007521;28;20186;-60
2022/02/08 04:52:23;;;;;;;9.33;3.87;;;-0.70;99.90;;;;;;5009842;28;20456;-60
2022/02/08 04:57:25;;;;;;;10.70;3.67;;;-0.70;99.90;;;;;;5010650;28;20534;-58
2022/02/08 05:00:13;;;;;;;8.40;3.37;;;-0.70;99.90;;;;;;5006227;28;20209;-61
2022/02/08 05:35:39;;;;;;;;;;;;;;;;;;;;;
2022/02/08 05:43:23;;;;;;;8.17;3.00;;;-0.60;99.90;;;;;;4985539;28;20466;-57
2022/02/08 05:48:48;;;;;;;4.50;3.10;;;-0.50;99.90;;;;;;4987905;28;20936;-59
2022/02/08 05:51:20;;;;;;;5.33;2.90;;;-0.40;99.90;;;;;;4992062;28;20487;-60
2022/02/08 05:53:46;;;;;;;10.37;3.40;;;-0.40;99.90;;;;;;4993790;28;20837;-57
2022/02/08 05:56:14;;;;;;;11.83;3.90;;;-0.40;99.90;;;;;;4990303;28;20452;-58
2022/02/08 05:58:43;;;;;;;6.30;3.23;;;-0.30;99.90;;;;;;4989521;28;20181;-59
2022/02/08 06:01:08;;;;;;;8.13;3.60;;;-0.30;99.90;;;;;;4981420;28;20445;-58
2022/02/08 06:03:34;;;;;;;8.70;3.70;;;-0.30;99.90;;;;;;4981942;28;20865;-58
2022/02/08 06:06:00;;;;;;;11.20;3.60;;;-0.30;99.90;;;;;;4982892;28;20241;-57
2022/02/08 06:08:26;;;;;;;8.63;4.60;;;-0.20;99.90;;;;;;4983156;28;20332;-58
2022/02/08 06:11:03;;;;;;;12.97;4.80;;;-0.20;99.90;;;;;;4985527;28;20437;-59
2022/02/08 06:13:29;;;;;;;6.90;4.50;;;-0.20;99.90;;;;;;4980829;28;20702;-57
2022/02/08 06:16:03;;;;;;;6.30;3.70;;;-0.30;99.90;;;;;;4983959;28;20480;-58
2022/02/08 06:18:30;;;;;;;8.57;3.73;;;-0.30;99.90;;;;;;4993985;28;20433;-55
2022/02/08 06:20:56;;;;;;;9.80;3.93;;;-0.30;99.90;;;;;;4978302;28;21046;-58
2022/02/08 06:23:22;;;;;;;4.50;3.83;;;-0.30;99.90;;;;;;4980918;28;20432;-58
2022/02/08 06:25:47;;;;;;;13.50;4.13;;;-0.20;99.90;;;;;;4989243;28;20447;-58
2022/02/08 06:28:14;;;;;;;9.50;5.97;;;-0.30;99.90;;;;;;5003441;28;20226;-58
2022/02/08 06:30:39;;;;;;;7.43;4.67;;;-0.30;99.90;;;;;;4980008;28;20210;-58
2022/02/08 06:33:06;;;;;;;15.40;5.53;;;-0.30;99.90;;;;;;4983886;28;20478;-55
2022/02/08 06:35:33;;;;;;;11.80;5.60;;;-0.30;99.90;;;;;;4979862;28;20178;-59
2022/02/08 06:38:01;;;;;;;10.50;4.90;;;-0.30;99.90;;;;;;4994083;28;20792;-58
2022/02/08 06:40:27;;;;;;;8.10;3.97;;;-0.30;99.90;;;;;;4984929;28;20434;-57
2022/02/08 06:43:00;;;;;;;8.53;4.40;;;-0.30;99.90;;;;;;4975790;28;20908;-59
2022/02/08 06:45:26;;;;;;;11.70;4.23;;;-0.30;99.90;;;;;;4970773;28;20442;-57
2022/02/08 06:47:52;;;;;;;11.67;4.43;;;-0.30;99.90;;;;;;4984914;28;22113;-61
2022/02/08 06:50:18;;;;;;;9.40;3.93;;;-0.20;99.90;;;;;;4986534;28;20183;-58
2022/02/08 06:52:44;;;;;;;10.07;4.43;;;-0.30;99.90;;;;;;4972811;28;20967;-58
2022/02/08 06:55:10;;;;;;;9.80;4.87;;;-0.20;99.90;;;;;;4984618;28;20625;-58
2022/02/08 06:57:48;;;;;;;10.43;5.00;;;-0.20;99.90;;;;;;4988490;28;20266;-58
2022/02/08 07:00:18;;;;;;;7.27;4.60;;;-0.20;99.90;;;;;;4987404;28;20824;-58
2022/02/08 07:02:44;;;;;;;7.53;4.10;;;-0.10;99.90;;;;;;4990067;28;20909;-59
2022/02/08 07:05:09;;;;;;;8.60;6.00;;;-0.10;99.90;;;;;;4993862;28;20492;-59
2022/02/08 07:07:35;;;;;;;10.60;4.80;;;-0.10;99.90;;;;;;5010372;28;20179;-60
2022/02/08 07:10:03;;;;;;;10.20;5.67;;;-0.10;99.90;;;;;;5008600;28;20183;-59
2022/02/08 07:12:29;;;;;;;13.60;5.23;;;-0.10;99.90;;;;;;4997054;28;20187;-57
2022/02/08 07:14:56;;;;;;;16.37;5.80;;;-0.10;99.90;;;;;;4992572;28;20539;-56
2022/02/08 07:17:21;;;;;;;13.17;6.40;;;-0.20;99.90;;;;;;4991657;28;20445;-57
2022/02/08 07:19:47;;;;;;;19.93;7.20;;;-0.20;99.90;;;;;;4972612;28;20481;-56
2022/02/08 07:22:12;;;;;;;13.80;8.00;;;-0.10;99.90;;;;;;4988056;28;20570;-60
2022/02/08 07:24:38;;;;;;;15.40;8.50;;;-0.10;99.90;;;;;;4996739;28;20171;-58
2022/02/08 07:27:04;;;;;;;14.20;7.80;;;-0.10;99.90;;;;;;4970590;28;20188;-57
2022/02/08 07:29:32;;;;;;;17.33;8.00;;;-0.20;99.90;;;;;;4969180;28;20183;-57
2022/02/08 07:32:01;;;;;;;15.60;7.83;;;-0.10;99.90;;;;;;4970359;28;20465;-57
2022/02/08 07:34:39;;;;;;;13.50;7.40;;;-0.10;99.90;;;;;;4982987;28;20982;-57
2022/02/08 07:39:53;;;;;;;15.07;7.83;;;-0.10;99.90;;;;;;4988304;28;20944;-57
2022/02/08 07:42:19;;;;;;;14.03;7.70;;;0.00;99.90;;;;;;4989781;28;20835;-57
2022/02/08 07:44:46;;;;;;;14.77;7.97;;;0.00;99.90;;;;;;4971693;28;20454;-58
2022/02/08 07:47:12;;;;;;;13.50;7.93;;;0.10;99.90;;;;;;4995436;28;20183;-57
2022/02/08 07:49:40;;;;;;;14.80;8.03;;;0.10;99.90;;;;;;5005103;28;20414;-58
2022/02/08 07:52:06;;;;;;;13.93;7.63;;;0.10;99.90;;;;;;4994753;28;20457;-58
2022/02/08 07:54:32;;;;;;;16.50;8.50;;;0.20;99.90;;;;;;4994316;28;20477;-59
2022/02/08 07:56:58;;;;;;;14.87;7.03;;;0.30;99.90;;;;;;4990811;28;20431;-57
2022/02/08 07:59:23;;;;;;;18.77;6.50;;;0.30;99.90;;;;;;4983642;28;20180;-58
2022/02/08 08:01:49;;;;;;;18.73;7.90;;;0.40;99.90;;;;;;4970495;28;20204;-58
2022/02/08 08:04:15;;;;;;;13.30;7.37;;;0.40;99.90;;;;;;4970620;28;20192;-58
2022/02/08 08:06:40;;;;;;;14.80;6.87;;;0.40;99.90;;;;;;4982974;28;20713;-58
2022/02/08 08:09:06;;;;;;;13.93;5.67;;;0.50;99.90;;;;;;4995721;28;20267;-58
2022/02/08 08:11:37;;;;;;;15.47;7.67;;;0.50;99.90;;;;;;4978596;28;20663;-58
2022/02/08 08:14:05;;;;;;;17.33;6.80;;;0.60;99.90;;;;;;4979871;28;20283;-60
2022/02/08 08:19:04;;;;;;;12.43;5.77;;;0.70;99.90;;;;;;4974492;28;20457;-60
2022/02/08 08:21:31;;;;;;;12.03;5.90;;;0.80;99.90;;;;;;4988857;28;20438;-58
2022/02/08 08:23:57;;;;;;;9.97;5.23;;;0.80;99.90;;;;;;4989147;28;20418;-58
2022/02/08 08:26:23;;;;;;;15.93;4.90;;;0.80;99.90;;;;;;4995456;28;20419;-61
2022/02/08 08:28:49;;;;;;;16.03;4.93;;;0.90;99.90;;;;;;4996649;28;20416;-58
2022/02/08 08:31:17;;;;;;;7.97;4.50;;;0.90;99.90;;;;;;4974283;28;20422;-58
2022/02/08 08:33:43;;;;;;;10.97;5.10;;;1.00;99.90;;;;;;4989609;28;20457;-59
2022/02/08 08:36:10;;;;;;;9.03;4.30;;;1.10;99.90;;;;;;4981629;28;20435;-57
2022/02/08 08:38:36;;;;;;;9.53;4.83;;;1.20;99.90;;;;;;4990228;28;20488;-58
2022/02/08 08:51:34;;;;;;;8.63;4.40;;;1.60;99.90;;;;;;4991092;28;20449;-56
2022/02/08 08:54:00;;;;;;;8.20;4.60;;;1.70;99.90;;;;;;4991427;28;20462;-58
2022/02/08 08:56:26;;;;;;;13.53;4.70;;;1.80;99.90;;;;;;4991738;28;20450;-58
2022/02/08 08:58:52;;;;;;;14.27;4.73;;;1.90;99.50;;;;;;4988549;28;20184;-58
2022/02/08 09:01:18;;;;;;;11.53;3.70;;;2.00;97.50;;;;;;4996398;28;20462;-58
2022/02/08 09:03:45;;;;;;;10.93;5.33;;;2.10;97.40;;;;;;4987402;28;20204;-57
2022/02/08 09:06:11;;;;;;;13.20;5.80;;;2.10;95.70;;;;;;4994265;28;20248;-58
2022/02/08 09:08:40;;;;;;;7.50;4.83;;;2.20;94.20;;;;;;5002534;28;20507;-60
2022/02/08 09:11:37;;;;;;;19.43;5.00;;;2.20;93.90;;;;;;5006394;28;20796;-58
2022/02/08 09:14:02;;;;;;;8.37;3.67;;;2.40;94.20;;;;;;4995152;28;20976;-59
2022/02/08 09:16:35;;;;;;;12.00;4.40;;;2.50;93.90;;;;;;5003497;28;20513;-59
2022/02/08 09:19:28;;;;;;;7.63;3.50;;;2.60;92.20;;;;;;4999018;28;20500;-58
2022/02/08 09:27:22;;;;;;;17.33;4.67;;;2.70;83.10;;;;;;4992640;28;20412;-60
2022/02/08 09:29:52;;;;;;;14.40;4.27;;;2.70;82.90;;;;;;5002621;28;20918;-58
2022/02/08 09:32:32;;;;;;;7.40;4.07;;;2.80;83.60;;;;;;4997507;28;20530;-58
2022/02/08 09:34:58;;;;;;;5.83;3.00;;;2.90;83.90;;;;;;4993877;28;20968;-57
2022/02/08 09:37:24;;;;;;;5.00;2.90;;;3.00;84.00;;;;;;4992204;28;20483;-59
2022/02/08 09:39:52;;;;;;;8.80;3.03;;;3.20;83.00;;;;;;4995907;28;20268;-58
2022/02/08 09:42:18;;;;;;;10.80;4.03;;;3.40;80.30;;;;;;5010584;28;20177;-59
2022/02/08 09:44:44;;;;;;;8.50;4.00;;;3.50;77.20;;;;;;5009641;28;20439;-59
2022/02/08 09:47:15;;;;;;;13.53;3.73;;;3.60;77.10;;;;;;5014274;28;20554;-58
2022/02/08 09:49:50;;;;;;;8.53;4.00;;;3.70;77.80;;;;;;4994577;28;20178;-59
2022/02/08 09:52:18;;;;;;;8.97;2.93;;;3.90;74.30;;;;;;4988808;28;20517;-59
2022/02/08 09:54:44;;;;;;;7.50;3.13;;;3.90;69.00;;;;;;4981844;28;20477;-59
2022/02/08 09:57:11;;;;;;;7.30;3.13;;;4.00;68.20;;;;;;5010356;28;20526;-60
2022/02/08 09:59:37;;;;;;;11.10;3.37;;;4.20;68.20;;;;;;5010332;28;20172;-58
2022/02/08 10:02:03;;;;;;;8.57;3.30;;;4.20;67.30;;;;;;5009417;28;20451;-58
2022/02/08 10:04:29;;;;;;;10.80;3.60;;;4.30;67.60;;;;;;5010934;28;20177;-59
2022/02/08 10:06:57;;;;;;;11.70;4.23;;;4.30;67.20;;;;;;5013836;28;20453;-57
2022/02/08 10:09:31;;;;;;;7.93;3.30;;;4.50;66.40;;;;;;4996218;28;20538;-56
2022/02/08 10:11:58;;;;;;;7.83;3.23;;;4.60;67.10;;;;;;4986926;28;20450;-56
2022/02/08 10:22:39;;;;;;;9.53;3.83;;;4.80;62.50;;;;;;4986395;28;20478;-56
2022/02/08 10:25:17;;;;;;;6.13;3.10;;;4.80;62.20;;;;;;4986866;28;20516;-56
2022/02/08 10:27:50;;;;;;;5.73;2.90;;;4.70;60.70;;;;;;4992279;28;20524;-58
2022/02/08 10:30:56;;;;;;;8.50;3.40;;;4.70;60.40;;;;;;4989970;28;20474;-56
2022/02/08 10:38:57;;;;;;;9.47;4.60;;;4.70;60.50;;;;;;4988178;28;20462;-57
2022/02/08 10:41:23;;;;;;;7.70;3.20;;;4.80;60.80;;;;;;4987406;28;20439;-57
2022/02/08 10:43:59;;;;;;;9.37;4.07;;;4.90;60.20;;;;;;4991669;28;20187;-57
2022/02/08 10:46:25;;;;;;;11.70;4.40;;;5.00;60.30;;;;;;4981537;28;20765;-57
2022/02/08 10:49:03;;;;;;;8.73;3.87;;;5.00;59.00;;;;;;4991711;28;20593;-57
2022/02/08 10:51:33;;;;;;;14.87;5.37;;;5.00;59.40;;;;;;4987326;28;20478;-55
2022/02/08 10:54:05;;;;;;;9.30;3.27;;;5.00;59.80;;;;;;4983215;28;20467;-55
2022/02/08 10:56:34;;;;;;;11.67;3.90;;;5.10;59.90;;;;;;4984667;28;20627;-55
2022/02/08 10:59:24;;;;;;;11.97;3.27;;;5.10;59.40;;;;;;4981864;28;20472;-56
2022/02/08 11:02:00;;;;;;;9.93;3.70;;;5.10;59.20;;;;;;4983116;28;20447;-54
2022/02/08 11:04:44;;;;;;;6.77;3.80;;;5.10;59.40;;;;;;4988312;28;20559;-55
2022/02/08 11:07:18;;;;;;;9.30;3.20;;;5.10;59.50;;;;;;4982662;28;20428;-55
2022/02/08 11:09:59;;;;;;;7.20;3.47;;;5.10;59.40;;;;;;4985406;28;20521;-55
2022/02/08 11:12:55;;;;;;;11.13;4.50;;;5.10;59.60;;;;;;4988332;28;20450;-55
2022/02/08 11:15:31;;;;;;;15.43;3.30;;;5.00;59.00;;;;;;4986446;28;21083;-55
2022/02/08 11:20:51;;;;;;;10.70;3.67;;;5.20;59.60;;;;;;4988444;28;20750;-55
2022/02/08 11:23:56;;;;;;;10.23;3.70;;;5.30;59.70;;;;;;4990110;28;20451;-55
2022/02/08 11:26:04;;;;;;;10.23;2.77;;;5.40;59.30;;;;;;4989864;28;20711;-56
2022/02/08 11:28:45;;;;;;;5.20;2.80;;;5.60;58.70;;;;;;4987222;28;20516;-57
2022/02/08 11:31:29;;;;;;;6.33;2.87;;;5.70;57.90;;;;;;4987993;28;20211;-57
2022/02/08 12:01:33;;;;;;;3.43;2.30;;;10.60;48.50;;;;;;4981715;28;20432;-56
2022/02/08 12:04:29;;;;;;;3.93;2.30;;;10.90;46.50;;;;;;4971443;28;20439;-54
2022/02/08 12:59:56;;;;;;;9.80;2.53;;;16.80;35.00;;;;;;4984664;28;20547;-57
2022/02/08 14:21:22;;;;;;;7.83;2.80;;;16.20;38.20;;;;;;4996793;28;20456;-59
2022/02/08 15:08:51;;;;;;;4.17;2.00;;;11.50;42.20;;;;;;4984786;28;20429;-59
2022/02/08 15:11:17;;;;;;;6.60;2.20;;;10.90;43.30;;;;;;4986258;28;20209;-60
2022/02/08 15:13:49;;;;;;;8.93;2.23;;;10.50;44.50;;;;;;4978066;28;20496;-60
2022/02/08 15:18:46;;;;;;;3.97;2.43;;;9.90;46.70;;;;;;4982414;28;20451;-58
2022/02/08 15:21:17;;;;;;;3.83;2.00;;;9.60;47.30;;;;;;4980069;28;20457;-59
2022/02/08 15:23:43;;;;;;;7.07;2.63;;;9.40;47.60;;;;;;4981291;28;20197;-62
2022/02/08 15:26:08;;;;;;;8.37;2.50;;;9.30;47.50;;;;;;4989490;28;20867;-61
2022/02/08 15:28:34;;;;;;;5.77;2.70;;;9.20;47.80;;;;;;4976117;28;20173;-62
2022/02/08 15:31:00;;;;;;;7.40;2.33;;;9.10;48.40;;;;;;4975639;28;20674;-61
2022/02/08 15:33:27;;;;;;;11.33;2.87;;;9.00;48.40;;;;;;4979422;28;20186;-62
2022/02/08 15:35:54;;;;;;;4.20;2.60;;;8.90;48.20;;;;;;4973688;28;20212;-60
2022/02/08 15:38:25;;;;;;;4.83;2.90;;;8.80;48.40;;;;;;4977518;28;21233;-59
2022/02/08 15:40:51;;;;;;;6.27;3.17;;;8.60;48.70;;;;;;4983016;28;20464;-58
2022/02/08 15:43:17;;;;;;;6.63;2.67;;;8.60;48.90;;;;;;4982409;28;21004;-60
2022/02/08 15:48:49;;;;;;;6.10;3.13;;;8.40;49.30;;;;;;4931110;29;20729;-59
2022/02/08 15:51:25;;;;;;;5.90;2.90;;;8.30;49.40;;;;;;4929372;28;20452;-59
2022/02/08 16:07:12;;;;;;;10.53;2.77;;;7.80;51.40;;;;;;4988340;28;20562;-64
2022/02/08 16:12:29;;;;;;;8.57;3.67;;;7.50;51.60;;;;;;4985088;28;21274;-60
2022/02/08 16:17:35;;;;;;;8.30;3.53;;;7.30;51.10;;;;;;4985960;28;20439;-56
2022/02/08 16:46:32;;;;;;;10.60;5.13;;;6.40;53.50;;;;;;4994710;28;20442;-61
2022/02/08 17:01:56;;;;;;;22.47;7.87;;;5.50;57.00;;;;;;4993315;28;20834;-58
2022/02/08 17:04:21;;;;;;;17.07;8.67;;;5.30;57.50;;;;;;4993319;28;20431;-63
2022/02/08 17:06:47;;;;;;;12.80;5.33;;;5.30;57.80;;;;;;4991841;28;21214;-62
2022/02/08 17:09:30;;;;;;;12.43;6.50;;;5.10;58.10;;;;;;4996054;28;20177;-63
2022/02/08 17:12:06;;;;;;;11.00;5.37;;;5.10;58.50;;;;;;4991336;28;20270;-62
2022/02/08 17:14:48;;;;;;;9.93;4.83;;;5.00;58.90;;;;;;4990389;28;21093;-63
2022/02/08 17:47:34;;;;;;;16.37;9.63;;;3.90;64.60;;;;;;4991206;28;20491;-58
2022/02/08 17:50:02;;;;;;;17.03;8.43;;;3.80;65.10;;;;;;4987115;28;20854;-59
2022/02/08 17:52:28;;;;;;;21.07;9.90;;;3.70;66.20;;;;;;4990699;28;20439;-59
2022/02/08 17:54:54;;;;;;;14.50;7.20;;;3.70;66.20;;;;;;4985723;28;20819;-60
2022/02/08 17:57:19;;;;;;;17.17;8.70;;;3.60;67.00;;;;;;4987877;28;20276;-59
2022/02/08 17:59:45;;;;;;;13.53;8.00;;;3.50;67.80;;;;;;4990775;28;20182;-59
2022/02/08 18:02:10;;;;;;;13.43;7.90;;;3.50;68.70;;;;;;4988056;28;20172;-58
2022/02/08 18:04:36;;;;;;;13.30;6.77;;;3.50;69.70;;;;;;4995291;28;20235;-55
2022/02/08 18:07:03;;;;;;;23.40;7.30;;;3.40;70.20;;;;;;4988352;28;20188;-60
2022/02/08 18:09:29;;;;;;;14.47;6.27;;;3.30;70.70;;;;;;4990417;28;20251;-57
2022/02/08 18:11:58;;;;;;;16.80;8.07;;;3.30;71.10;;;;;;4994270;28;20568;-59
2022/02/08 18:14:25;;;;;;;12.57;7.23;;;3.20;71.70;;;;;;4985677;28;20460;-58
2022/02/08 18:17:02;;;;;;;14.83;6.60;;;3.10;72.40;;;;;;4989561;28;20437;-58
2022/02/08 18:19:33;;;;;;;21.23;8.30;;;3.10;73.30;;;;;;4976757;28;20447;-59
2022/02/08 18:22:21;;;;;;;14.87;7.17;;;3.10;74.10;;;;;;4982992;28;20449;-60
2022/02/08 18:58:05;;;;;;;12.07;5.23;;;2.50;90.20;;;;;;4974532;28;20431;-60
2022/02/08 19:08:51;;;;;;;12.53;8.67;;;2.40;93.20;;;;;;4980072;28;20962;-60
2022/02/08 19:11:41;;;;;;;;;;;;;;;;;;;;;
2022/02/08 19:16:56;;;;;;;18.00;8.90;;;2.40;93.50;;;;;;4974423;28;20210;-62
2022/02/08 19:19:39;;;;;;;14.30;10.00;;;2.30;93.50;;;;;;4980575;28;20450;-58
2022/02/08 19:22:05;;;;;;;14.83;8.27;;;2.20;94.00;;;;;;4982782;28;20454;-60
2022/02/08 19:24:31;;;;;;;25.10;8.90;;;2.20;94.10;;;;;;4980336;28;20917;-60
2022/02/08 19:26:58;;;;;;;22.17;9.07;;;2.20;94.50;;;;;;4974020;28;20245;-59
2022/02/08 19:29:26;;;;;;;16.73;7.33;;;2.10;94.80;;;;;;4973908;28;20179;-61
2022/02/08 19:31:53;;;;;;;11.37;7.20;;;2.10;95.20;;;;;;4973601;28;20455;-60
2022/02/08 19:34:19;;;;;;;10.40;7.23;;;2.00;95.60;;;;;;4981121;28;20464;-59
2022/02/08 19:36:46;;;;;;;14.20;7.20;;;2.00;95.50;;;;;;4970168;28;20434;-61
2022/02/08 19:39:13;;;;;;;15.73;8.17;;;1.90;95.60;;;;;;4978357;28;20437;-62
2022/02/08 19:41:39;;;;;;;16.20;7.97;;;1.90;95.70;;;;;;4977719;28;20533;-60
2022/02/08 19:44:07;;;;;;;16.50;8.63;;;1.90;95.80;;;;;;4973769;28;20433;-62
2022/02/08 19:46:34;;;;;;;17.07;8.03;;;1.80;96.50;;;;;;4975462;28;20536;-61
2022/02/08 19:49:00;;;;;;;18.73;10.10;;;1.80;97.30;;;;;;4976816;28;20475;-61
2022/02/08 19:51:27;;;;;;;17.63;10.20;;;1.70;97.50;;;;;;4970923;28;20465;-62
2022/02/08 19:53:55;;;;;;;29.63;12.07;;;1.70;98.10;;;;;;4976306;28;20473;-61
2022/02/08 19:56:30;;;;;;;26.30;12.33;;;1.60;98.00;;;;;;4973645;28;21156;-61
2022/02/08 19:58:59;;;;;;;29.43;12.80;;;1.60;98.00;;;;;;4973929;28;20443;-61
2022/02/08 20:01:30;;;;;;;;;;;;;;;;;;;;;
2022/02/08 20:03:59;;;;;;;22.87;12.37;;;1.60;98.20;;;;;;4979919;28;20424;-61
2022/02/08 20:06:27;;;;;;;22.70;10.70;;;1.60;98.10;;;;;;4974990;28;20442;-62
2022/02/08 20:08:52;;;;;;;17.10;9.47;;;1.50;97.90;;;;;;4979612;28;20608;-61
2022/02/08 20:11:18;;;;;;;13.57;8.40;;;1.50;97.70;;;;;;4979358;28;20569;-61
2022/02/08 20:13:57;;;;;;;13.70;8.47;;;1.50;98.10;;;;;;4980896;28;20187;-61
2022/02/08 20:16:25;;;;;;;15.10;6.40;;;1.40;98.30;;;;;;4974201;28;20177;-60
2022/02/08 20:18:54;;;;;;;12.20;6.23;;;1.30;98.80;;;;;;4977711;28;20815;-60
2022/02/08 20:21:20;;;;;;;8.33;5.17;;;1.30;99.90;;;;;;5047317;22;20600;-63
2022/02/08 20:23:47;;;;;;;12.63;7.10;;;1.30;99.90;;;;;;5014626;28;20434;-61
2022/02/08 20:26:13;;;;;;;17.50;7.83;;;1.20;99.90;;;;;;5013591;28;21166;-61
2022/02/08 20:28:56;;;;;;;13.33;6.90;;;1.20;99.90;;;;;;5013568;28;20455;-60
2022/02/08 20:31:23;;;;;;;20.43;7.97;;;1.20;99.90;;;;;;5014937;28;20195;-61
2022/02/08 20:33:50;;;;;;;15.47;6.60;;;1.20;99.90;;;;;;5020436;28;20523;-59
2022/02/08 20:36:17;;;;;;;15.50;6.70;;;1.20;99.90;;;;;;5023219;28;20430;-61
2022/02/08 20:38:45;;;;;;;14.83;6.33;;;1.20;99.90;;;;;;5020724;28;20475;-62
2022/02/08 20:41:12;;;;;;;8.50;5.60;;;1.20;99.90;;;;;;5018373;28;20482;-61
2022/02/08 20:43:39;;;;;;;13.87;7.00;;;1.10;99.90;;;;;;5018922;28;20598;-60
2022/02/08 20:46:07;;;;;;;10.83;6.73;;;1.20;99.90;;;;;;5023366;28;20528;-61
2022/02/08 20:48:34;;;;;;;12.83;5.83;;;1.10;99.90;;;;;;5020473;28;20429;-63
2022/02/08 20:51:02;;;;;;;13.20;6.80;;;1.10;99.90;;;;;;5019032;28;20540;-60
2022/02/08 20:53:40;;;;;;;;;;;;;;;;;;;;;
2022/02/08 20:56:12;;;;;;;11.73;6.80;;;1.00;99.90;;;;;;5022414;28;21004;-60
2022/02/08 20:59:26;;;;;;;18.00;6.50;;;1.00;99.90;;;;;;5021792;28;20952;-61
2022/02/08 21:01:26;;;;;;;18.00;6.97;;;1.00;99.90;;;;;;5017832;28;21088;-61